createdAt,value
2023-01-07T00:04:15.433Z,41.2
2023-01-07T00:09:15.789Z,41.1
2023-01-07T00:14:16.256Z,41.1
2023-01-07T00:19:16.622Z,41
2023-01-07T00:24:18.439Z,40.9
2023-01-07T00:29:19.052Z,40.9
2023-01-07T00:34:19.491Z,40.8
2023-01-07T00:39:19.904Z,40.8
2023-01-07T00:44:20.307Z,40.7
2023-01-07T00:49:21.056Z,40.6
2023-01-07T00:54:21.448Z,40.6
2023-01-07T00:59:22.112Z,40.5
2023-01-07T01:04:22.747Z,40.4
2023-01-07T01:09:23.499Z,40.4
2023-01-07T01:14:23.887Z,40.3
2023-01-07T01:19:24.280Z,40.2
2023-01-07T01:24:24.894Z,40.2
2023-01-07T01:29:25.389Z,40.2
2023-01-07T01:34:26.010Z,40.1
2023-01-07T01:39:26.609Z,40.1
2023-01-07T01:44:27.243Z,40
2023-01-07T01:49:27.963Z,39.9
2023-01-07T01:54:28.543Z,39.9
2023-01-07T01:59:29.123Z,39.8
2023-01-07T02:04:29.853Z,39.8
2023-01-07T02:09:30.453Z,39.7
2023-01-07T02:14:31.018Z,39.7
2023-01-07T02:19:31.694Z,39.6
2023-01-07T02:24:32.075Z,39.6
2023-01-07T02:29:32.677Z,39.5
2023-01-07T02:34:33.252Z,39.5
2023-01-07T02:39:33.712Z,39.4
2023-01-07T02:44:34.051Z,39.4
2023-01-07T02:49:34.407Z,39.3
2023-01-07T02:54:34.993Z,39.2
2023-01-07T02:59:35.441Z,39.2
2023-01-07T03:04:35.791Z,39.2
2023-01-07T03:09:36.359Z,39.1
2023-01-07T03:14:36.721Z,39.1
2023-01-07T03:19:37.194Z,39.1
2023-01-07T03:24:37.518Z,39
2023-01-07T03:29:37.859Z,38.9
2023-01-07T03:34:38.441Z,38.9
2023-01-07T03:39:39.136Z,38.9
2023-01-07T03:44:39.458Z,38.8
2023-01-07T03:49:39.989Z,38.7
2023-01-07T03:54:40.409Z,38.7
2023-01-07T03:59:41.070Z,38.7
2023-01-07T04:04:41.705Z,38.6
2023-01-07T04:09:42.292Z,38.6
2023-01-07T04:14:42.628Z,38.6
2023-01-07T04:19:43.093Z,38.5
2023-01-07T04:24:43.424Z,38.4
2023-01-07T04:29:43.727Z,38.4
2023-01-07T04:34:44.051Z,38.4
2023-01-07T04:39:44.464Z,38.3
2023-01-07T04:44:44.801Z,38.3
2023-01-07T04:49:45.193Z,38.2
2023-01-07T04:54:45.787Z,38.2
2023-01-07T04:59:46.232Z,38.2
2023-01-07T05:04:46.557Z,38.1
2023-01-07T05:09:46.848Z,38.1
2023-01-07T05:14:47.368Z,38
2023-01-07T05:19:47.923Z,38
2023-01-07T05:24:48.211Z,37.9
2023-01-07T05:29:48.496Z,37.9
2023-01-07T05:34:48.997Z,37.9
2023-01-07T05:39:49.611Z,37.8
2023-01-07T05:44:50.148Z,37.8
2023-01-07T05:49:50.406Z,37.7
2023-01-07T05:54:50.676Z,37.7
2023-01-07T05:59:51.274Z,37.7
2023-01-07T06:04:51.538Z,37.6
2023-01-07T06:09:51.817Z,37.6
2023-01-07T06:14:52.090Z,37.6
2023-01-07T06:19:52.690Z,37.5
2023-01-07T06:24:52.947Z,37.5
2023-01-07T06:29:53.199Z,37.4
2023-01-07T06:34:53.678Z,37.4
2023-01-07T06:39:54.064Z,37.4
2023-01-07T06:44:54.311Z,37.4
2023-01-07T06:49:54.572Z,37.3
2023-01-07T06:54:55.070Z,37.2
2023-01-07T06:59:55.695Z,37.2
2023-01-07T07:04:56.258Z,37.2
2023-01-07T07:09:56.765Z,37.2
2023-01-07T07:14:57.365Z,37.1
2023-01-07T07:19:57.835Z,37.1
2023-01-07T07:24:58.315Z,37.1
2023-01-07T07:29:58.810Z,37.1
2023-01-07T07:34:59.452Z,37
2023-01-07T07:39:59.943Z,36.9
2023-01-07T07:45:00.429Z,36.9
2023-01-07T07:50:01.079Z,36.9
2023-01-07T07:55:19.642Z,36.7
2023-01-07T08:00:22.426Z,36.6
2023-01-07T08:05:23.089Z,36.5
2023-01-07T08:10:23.617Z,36.5
2023-01-07T08:15:24.126Z,36.4
2023-01-07T08:20:24.772Z,36.4
2023-01-07T08:25:25.286Z,36.4
2023-01-07T08:30:25.905Z,36.4
2023-01-07T08:35:26.556Z,36.3
2023-01-07T08:40:27.074Z,36.3
2023-01-07T08:45:27.586Z,36.2
2023-01-07T08:50:28.097Z,36.2
2023-01-07T08:55:28.867Z,36.2
2023-01-07T09:00:29.426Z,36.2
2023-01-07T09:05:29.975Z,35.2
2023-01-07T09:10:30.731Z,35
2023-01-07T09:15:31.052Z,34.9
2023-01-07T09:20:31.525Z,34.9
2023-01-07T09:25:32.013Z,34.9
2023-01-07T09:30:32.438Z,34.8
2023-01-07T09:35:32.987Z,34.8
2023-01-07T09:40:33.448Z,34.8
2023-01-07T09:45:33.870Z,34.7
2023-01-07T09:50:34.344Z,34.7
2023-01-07T09:55:34.902Z,34.7
2023-01-07T10:00:35.311Z,34.7
2023-01-07T10:05:35.722Z,34.6
2023-01-07T10:10:36.163Z,34.6
2023-01-07T10:15:36.704Z,34.6
2023-01-07T10:20:37.236Z,34.6
2023-01-07T10:25:37.664Z,34.6
2023-01-07T10:30:38.109Z,34.5
2023-01-07T10:35:38.717Z,34.5
2023-01-07T10:40:39.150Z,34.5
2023-01-07T10:45:39.571Z,34.4
2023-01-07T10:50:39.986Z,34.4
2023-01-07T10:55:40.533Z,34.4
2023-01-07T11:00:40.940Z,34.4
2023-01-07T11:05:41.357Z,34.3
2023-01-07T11:10:41.812Z,34.3
2023-01-07T11:15:42.335Z,34.2
2023-01-07T11:20:42.549Z,34.2
2023-01-07T11:25:42.953Z,34.2
2023-01-07T11:30:43.362Z,34.2
2023-01-07T11:35:43.892Z,34.2
2023-01-07T11:40:44.300Z,34.2
2023-01-07T11:45:46.401Z,34.1
2023-01-07T11:51:21.978Z,34.1
2023-01-07T11:56:22.382Z,34.1
2023-01-07T12:01:24.477Z,34.1
2023-01-07T12:06:26.446Z,34.1
2023-01-07T12:11:26.856Z,34
2023-01-07T12:16:28.825Z,34
2023-01-07T12:21:30.863Z,34
2023-01-07T12:26:32.948Z,33.9
2023-01-07T12:31:35.121Z,33.8
2023-01-07T12:36:35.648Z,33.5
2023-01-07T12:41:37.499Z,33.4
2023-01-07T12:46:39.646Z,33.4
2023-01-07T12:51:41.801Z,33.4
2023-01-07T12:56:43.623Z,33.4
2023-01-07T13:01:45.795Z,33.4
2023-01-07T13:06:48.049Z,33.3
2023-01-07T13:11:50.120Z,33.3
2023-01-07T13:16:52.166Z,33.3
2023-01-07T13:21:54.342Z,33.2
2023-01-07T13:26:56.407Z,33.2
2023-01-07T13:31:58.444Z,33.2
2023-01-07T13:37:02.665Z,33.2
2023-01-07T13:42:04.893Z,33.2
2023-01-07T13:47:06.937Z,33.2
2023-01-07T13:52:09.124Z,33.1
2023-01-07T13:57:11.215Z,33.1
2023-01-07T14:02:13.464Z,33.1
2023-01-07T14:07:15.768Z,33.1
2023-01-07T14:12:18.240Z,33.1
2023-01-07T14:17:20.162Z,33.1
2023-01-07T14:22:22.368Z,33
2023-01-07T14:27:24.407Z,33
2023-01-07T14:32:26.472Z,32.9
2023-01-07T14:37:28.659Z,32.9
2023-01-07T14:42:30.472Z,32.9
2023-01-07T14:47:32.303Z,32.9
2023-01-07T14:52:34.248Z,32.9
2023-01-07T14:57:36.287Z,32.9
2023-01-07T15:02:38.407Z,32.9
2023-01-07T15:07:40.588Z,32.8
2023-01-07T15:12:42.657Z,32.8
2023-01-07T15:17:44.726Z,32.7
2023-01-07T15:22:46.909Z,32.5
2023-01-07T15:27:48.737Z,32.4
2023-01-07T15:32:50.536Z,32.4
2023-01-07T15:37:52.688Z,32.4
2023-01-07T15:42:54.560Z,32.4
2023-01-07T15:47:56.574Z,32.3
2023-01-07T15:52:58.769Z,32.3
2023-01-07T15:58:00.810Z,32.3
2023-01-07T16:03:02.824Z,32
2023-01-07T16:08:04.716Z,31.8
2023-01-07T16:13:06.755Z,31.8
2023-01-07T16:18:08.825Z,31.8
2023-01-07T16:23:10.868Z,31.8
2023-01-07T16:28:12.863Z,31.8
2023-01-07T16:33:14.841Z,31.7
2023-01-07T16:38:16.743Z,31.7
2023-01-07T16:43:18.710Z,31.7
2023-01-07T16:48:20.696Z,31.7
2023-01-07T16:53:22.804Z,31.6
2023-01-07T16:58:24.776Z,31.6
2023-01-07T17:03:26.824Z,31.6
2023-01-07T17:08:28.950Z,31.6
2023-01-07T17:13:30.952Z,31.6
2023-01-07T17:18:32.957Z,31.6
2023-01-07T17:23:35.052Z,31.6
2023-01-07T17:28:37.052Z,31.6
2023-01-07T17:33:38.803Z,31.5
2023-01-07T17:38:40.678Z,31.5
2023-01-07T17:43:42.659Z,31.5
2023-01-07T17:48:44.689Z,34.2
2023-01-07T17:53:45.182Z,36.8
2023-01-07T17:58:45.751Z,39.4
2023-01-07T18:03:46.373Z,41.7
2023-01-07T18:08:47.019Z,41.9
2023-01-07T18:13:47.811Z,42.9
2023-01-07T18:18:48.518Z,43.4
2023-01-07T18:23:49.207Z,43.4
2023-01-07T18:28:50.061Z,43.4
2023-01-07T18:33:50.783Z,44
2023-01-07T18:38:51.537Z,44.7
2023-01-07T18:43:52.425Z,44.7
2023-01-07T18:48:53.200Z,44.7
2023-01-07T18:53:53.985Z,44.6
2023-01-07T18:58:54.888Z,44.2
2023-01-07T19:03:55.742Z,44.1
2023-01-07T19:08:56.538Z,44.1
2023-01-07T19:13:57.377Z,44.1
2023-01-07T19:18:57.854Z,44.1
2023-01-07T19:23:58.554Z,44
2023-01-07T19:28:59.274Z,44
2023-01-07T19:34:00.126Z,43.9
2023-01-07T19:39:00.831Z,43.9
2023-01-07T19:44:01.570Z,43.9
2023-01-07T19:49:02.331Z,43.8
2023-01-07T19:54:03.219Z,43.8
2023-01-07T19:59:04.110Z,43.7
2023-01-07T20:04:04.867Z,43.7
2023-01-07T20:09:05.578Z,43.7
2023-01-07T20:14:06.376Z,43.6
2023-01-07T20:19:07.101Z,43.6
2023-01-07T20:24:07.793Z,43.6
2023-01-07T20:29:08.493Z,43.5
2023-01-07T20:34:09.315Z,43.4
2023-01-07T20:39:09.764Z,43.4
2023-01-07T20:44:10.440Z,43.4
2023-01-07T20:49:11.275Z,43.3
2023-01-07T20:54:11.986Z,43.3
2023-01-07T20:59:12.666Z,43.2
2023-01-07T21:04:13.361Z,43.1
2023-01-07T21:09:14.069Z,43.1
2023-01-07T21:14:14.743Z,43.1
2023-01-07T21:19:15.427Z,43
2023-01-07T21:24:16.106Z,42.8
2023-01-07T21:29:16.928Z,42.7
2023-01-07T21:34:17.657Z,42.7
2023-01-07T21:39:18.336Z,42.6
2023-01-07T21:44:19.032Z,42.5
2023-01-07T21:49:19.579Z,42.4
2023-01-07T21:54:20.240Z,42.4
2023-01-07T21:59:20.912Z,42.3
2023-01-07T22:04:21.625Z,42.2
2023-01-07T22:09:22.428Z,42.2
2023-01-07T22:14:23.132Z,42.2
2023-01-07T22:19:23.785Z,42.1
2023-01-07T22:24:24.430Z,42.1
2023-01-07T22:29:25.193Z,42
2023-01-07T22:34:25.603Z,41.9
2023-01-07T22:39:26.218Z,41.9
2023-01-07T22:44:26.614Z,41.8
2023-01-07T22:49:27.384Z,41.7
2023-01-07T22:54:27.985Z,41.7
2023-01-07T22:59:28.613Z,41.6
2023-01-07T23:04:29.458Z,41.6
2023-01-07T23:09:30.081Z,41.5
2023-01-07T23:14:30.717Z,41.5
2023-01-07T23:19:32.261Z,41.4
2023-01-07T23:24:32.993Z,41.4
2023-01-07T23:29:33.361Z,41.3
2023-01-07T23:34:34.084Z,41.2
2023-01-07T23:39:34.680Z,41.2
2023-01-07T23:44:35.041Z,41.1
2023-01-07T23:49:35.387Z,41.1
2023-01-07T23:54:36.074Z,41
2023-01-07T23:59:36.671Z,41
